sensor_id;sensor_type;location;lat;lon;timestamp;pressure;altitude;pressure_sealevel;temperature;humidity
65384;BME280;51986;52.788;41.368;2023-05-23T00:01:15;99532.72;;;18.74;45.89
65384;BME280;51986;52.788;41.368;2023-05-23T00:03:43;99527.34;;;18.65;45.88
65384;BME280;51986;52.788;41.368;2023-05-23T00:06:13;99532.38;;;18.54;46.06
65384;BME280;51986;52.788;41.368;2023-05-23T00:08:40;99530.66;;;18.79;46.02
65384;BME280;51986;52.788;41.368;2023-05-23T00:11:06;99535.28;;;18.87;45.26
65384;BME280;51986;52.788;41.368;2023-05-23T00:13:33;99535.22;;;18.69;45.89
65384;BME280;51986;52.788;41.368;2023-05-23T00:16:00;99549.31;;;18.60;46.19
65384;BME280;51986;52.788;41.368;2023-05-23T00:18:27;99504.63;;;18.61;45.99
65384;BME280;51986;52.788;41.368;2023-05-23T00:20:54;99538.28;;;18.49;46.95
65384;BME280;51986;52.788;41.368;2023-05-23T00:23:21;99526.66;;;18.34;46.77
65384;BME280;51986;52.788;41.368;2023-05-23T00:25:48;99528.69;;;18.08;47.99
65384;BME280;51986;52.788;41.368;2023-05-23T00:28:15;99538.56;;;17.98;48.59
65384;BME280;51986;52.788;41.368;2023-05-23T00:30:42;99546.97;;;17.87;48.34
65384;BME280;51986;52.788;41.368;2023-05-23T00:33:09;99546.88;;;17.56;50.45
65384;BME280;51986;52.788;41.368;2023-05-23T00:35:36;99558.69;;;17.68;50.10
65384;BME280;51986;52.788;41.368;2023-05-23T00:38:03;99517.16;;;17.45;52.10
65384;BME280;51986;52.788;41.368;2023-05-23T00:40:30;99558.91;;;17.61;52.11
65384;BME280;51986;52.788;41.368;2023-05-23T00:42:57;99564.38;;;17.57;52.99
65384;BME280;51986;52.788;41.368;2023-05-23T00:45:24;99583.63;;;17.52;53.30
65384;BME280;51986;52.788;41.368;2023-05-23T00:47:51;99562.38;;;17.49;53.63
65384;BME280;51986;52.788;41.368;2023-05-23T00:50:19;99545.75;;;17.44;53.22
65384;BME280;51986;52.788;41.368;2023-05-23T00:52:48;99580.31;;;17.48;53.62
65384;BME280;51986;52.788;41.368;2023-05-23T00:55:15;99562.31;;;17.39;52.83
65384;BME280;51986;52.788;41.368;2023-05-23T00:57:42;99538.66;;;17.29;53.45
65384;BME280;51986;52.788;41.368;2023-05-23T01:00:13;99544.09;;;17.25;53.33
65384;BME280;51986;52.788;41.368;2023-05-23T01:02:46;99541.25;;;16.94;54.05
65384;BME280;51986;52.788;41.368;2023-05-23T01:05:14;99528.34;;;16.92;53.89
65384;BME280;51986;52.788;41.368;2023-05-23T01:07:48;99532.63;;;16.90;54.49
65384;BME280;51986;52.788;41.368;2023-05-23T01:10:24;99500.22;;;16.79;54.85
65384;BME280;51986;52.788;41.368;2023-05-23T01:15:42;99513.94;;;17.15;53.31
65384;BME280;51986;52.788;41.368;2023-05-23T01:18:25;99508.16;;;17.30;53.13
65384;BME280;51986;52.788;41.368;2023-05-23T01:21:00;99501.56;;;17.09;54.08
65384;BME280;51986;52.788;41.368;2023-05-23T01:29:05;99490.91;;;17.21;53.89
65384;BME280;51986;52.788;41.368;2023-05-23T01:31:36;99494.31;;;17.22;54.48
65384;BME280;51986;52.788;41.368;2023-05-23T01:34:06;99484.41;;;17.10;53.58
65384;BME280;51986;52.788;41.368;2023-05-23T01:36:33;99503.94;;;17.19;53.64
65384;BME280;51986;52.788;41.368;2023-05-23T01:39:04;99515.72;;;17.31;53.72
65384;BME280;51986;52.788;41.368;2023-05-23T01:41:33;99467.28;;;17.33;53.74
65384;BME280;51986;52.788;41.368;2023-05-23T01:44:00;99510.97;;;17.48;53.31
65384;BME280;51986;52.788;41.368;2023-05-23T01:46:28;99513.63;;;17.48;53.65
65384;BME280;51986;52.788;41.368;2023-05-23T01:48:58;99491.13;;;17.14;54.59
65384;BME280;51986;52.788;41.368;2023-05-23T01:51:26;99501.44;;;17.25;54.64
65384;BME280;51986;52.788;41.368;2023-05-23T01:53:53;99505.16;;;17.28;55.10
65384;BME280;51986;52.788;41.368;2023-05-23T01:56:20;99485.13;;;17.23;54.64
65384;BME280;51986;52.788;41.368;2023-05-23T01:58:49;99504.13;;;17.25;55.24
65384;BME280;51986;52.788;41.368;2023-05-23T02:01:17;99522.03;;;17.25;55.43
65384;BME280;51986;52.788;41.368;2023-05-23T02:03:44;99509.56;;;17.09;55.35
65384;BME280;51986;52.788;41.368;2023-05-23T02:06:11;99494.78;;;16.95;55.03
65384;BME280;51986;52.788;41.368;2023-05-23T02:08:38;99490.75;;;16.78;56.17
65384;BME280;51986;52.788;41.368;2023-05-23T02:11:05;99482.31;;;16.92;55.81
65384;BME280;51986;52.788;41.368;2023-05-23T02:13:32;99499.59;;;16.87;56.28
65384;BME280;51986;52.788;41.368;2023-05-23T02:15:59;99509.41;;;16.90;56.05
65384;BME280;51986;52.788;41.368;2023-05-23T02:18:26;99495.94;;;16.94;56.35
65384;BME280;51986;52.788;41.368;2023-05-23T02:20:54;99505.66;;;16.88;56.58
65384;BME280;51986;52.788;41.368;2023-05-23T02:23:21;99536.69;;;16.94;57.58
65384;BME280;51986;52.788;41.368;2023-05-23T02:25:48;99508.56;;;16.81;56.45
65384;BME280;51986;52.788;41.368;2023-05-23T02:28:15;99518.03;;;16.94;56.84
65384;BME280;51986;52.788;41.368;2023-05-23T02:30:42;99510.59;;;16.77;57.69
65384;BME280;51986;52.788;41.368;2023-05-23T02:33:09;99511.31;;;16.64;57.80
65384;BME280;51986;52.788;41.368;2023-05-23T02:35:36;99507.81;;;16.67;58.11
65384;BME280;51986;52.788;41.368;2023-05-23T02:38:04;99499.94;;;16.51;58.51
65384;BME280;51986;52.788;41.368;2023-05-23T02:40:31;99524.84;;;16.83;58.39
65384;BME280;51986;52.788;41.368;2023-05-23T02:43:00;99533.63;;;16.70;58.70
65384;BME280;51986;52.788;41.368;2023-05-23T02:45:27;99509.41;;;16.65;58.68
65384;BME280;51986;52.788;41.368;2023-05-23T02:47:54;99509.97;;;16.47;59.38
65384;BME280;51986;52.788;41.368;2023-05-23T02:50:21;99499.19;;;16.38;59.94
65384;BME280;51986;52.788;41.368;2023-05-23T02:52:48;99481.63;;;16.40;60.35
65384;BME280;51986;52.788;41.368;2023-05-23T02:55:15;99469.13;;;15.99;61.57
65384;BME280;51986;52.788;41.368;2023-05-23T02:57:45;99471.44;;;15.97;62.01
65384;BME280;51986;52.788;41.368;2023-05-23T03:00:12;99512.81;;;16.27;61.03
65384;BME280;51986;52.788;41.368;2023-05-23T03:02:42;99521.22;;;16.51;60.27
65384;BME280;51986;52.788;41.368;2023-05-23T03:05:09;99517.72;;;16.54;60.90
65384;BME280;51986;52.788;41.368;2023-05-23T03:07:36;99517.28;;;16.68;60.47
65384;BME280;51986;52.788;41.368;2023-05-23T03:10:03;99487.03;;;16.75;59.85
65384;BME280;51986;52.788;41.368;2023-05-23T03:12:30;99501.94;;;16.60;60.50
65384;BME280;51986;52.788;41.368;2023-05-23T03:14:57;99472.97;;;16.75;60.09
65384;BME280;51986;52.788;41.368;2023-05-23T03:17:25;99482.13;;;16.74;59.77
65384;BME280;51986;52.788;41.368;2023-05-23T03:19:51;99497.22;;;16.89;59.29
65384;BME280;51986;52.788;41.368;2023-05-23T03:22:19;99481.91;;;16.81;59.76
65384;BME280;51986;52.788;41.368;2023-05-23T03:24:45;99484.97;;;16.92;60.06
65384;BME280;51986;52.788;41.368;2023-05-23T03:27:13;99496.47;;;16.89;59.57
65384;BME280;51986;52.788;41.368;2023-05-23T03:29:42;99461.47;;;16.78;59.55
65384;BME280;51986;52.788;41.368;2023-05-23T03:32:09;99481.13;;;17.18;58.80
65384;BME280;51986;52.788;41.368;2023-05-23T03:34:36;99430.84;;;16.95;58.69
65384;BME280;51986;52.788;41.368;2023-05-23T03:37:03;99470.44;;;17.18;58.85
65384;BME280;51986;52.788;41.368;2023-05-23T03:39:30;99463.53;;;17.43;58.28
65384;BME280;51986;52.788;41.368;2023-05-23T03:42:16;99432.75;;;17.51;57.45
65384;BME280;51986;52.788;41.368;2023-05-23T03:44:44;99460.09;;;17.64;56.67
65384;BME280;51986;52.788;41.368;2023-05-23T03:47:11;99477.84;;;17.58;56.92
65384;BME280;51986;52.788;41.368;2023-05-23T03:49:41;99462.31;;;17.66;57.49
65384;BME280;51986;52.788;41.368;2023-05-23T03:52:08;99448.84;;;17.91;57.14
65384;BME280;51986;52.788;41.368;2023-05-23T03:54:54;99479.28;;;18.03;56.88
65384;BME280;51986;52.788;41.368;2023-05-23T03:57:40;99476.94;;;18.36;55.71
65384;BME280;51986;52.788;41.368;2023-05-23T04:00:07;99455.88;;;18.29;55.42
65384;BME280;51986;52.788;41.368;2023-05-23T04:02:42;99468.88;;;18.58;54.61
65384;BME280;51986;52.788;41.368;2023-05-23T04:05:10;99487.53;;;18.49;55.16
65384;BME280;51986;52.788;41.368;2023-05-23T04:07:38;99452.22;;;18.54;54.80
65384;BME280;51986;52.788;41.368;2023-05-23T04:10:08;99466.94;;;18.68;53.95
65384;BME280;51986;52.788;41.368;2023-05-23T04:12:36;99461.84;;;18.52;54.66
65384;BME280;51986;52.788;41.368;2023-05-23T04:15:07;99471.38;;;18.62;53.56
65384;BME280;51986;52.788;41.368;2023-05-23T04:17:38;99473.03;;;18.68;53.52
65384;BME280;51986;52.788;41.368;2023-05-23T04:22:52;99462.22;;;18.81;54.30
65384;BME280;51986;52.788;41.368;2023-05-23T04:25:19;99454.59;;;18.61;53.61
65384;BME280;51986;52.788;41.368;2023-05-23T04:28:00;99460.06;;;18.39;54.76
65384;BME280;51986;52.788;41.368;2023-05-23T04:30:27;99486.59;;;18.92;53.75
65384;BME280;51986;52.788;41.368;2023-05-23T04:32:54;99488.84;;;19.03;53.79
65384;BME280;51986;52.788;41.368;2023-05-23T04:38:07;99469.72;;;18.55;52.51
65384;BME280;51986;52.788;41.368;2023-05-23T04:40:53;99476.75;;;18.80;52.50
65384;BME280;51986;52.788;41.368;2023-05-23T04:46:35;99473.22;;;18.92;52.09
65384;BME280;51986;52.788;41.368;2023-05-23T04:49:21;99480.25;;;19.08;51.39
65384;BME280;51986;52.788;41.368;2023-05-23T04:51:49;99468.69;;;19.30;51.33
65384;BME280;51986;52.788;41.368;2023-05-23T04:54:34;99483.97;;;19.02;51.73
65384;BME280;51986;52.788;41.368;2023-05-23T04:57:03;99490.03;;;19.57;50.54
65384;BME280;51986;52.788;41.368;2023-05-23T04:59:32;99495.94;;;19.80;50.38
65384;BME280;51986;52.788;41.368;2023-05-23T05:02:00;99484.38;;;19.64;50.47
65384;BME280;51986;52.788;41.368;2023-05-23T05:04:27;99493.16;;;19.65;50.37
65384;BME280;51986;52.788;41.368;2023-05-23T05:06:54;99486.41;;;20.06;49.78
65384;BME280;51986;52.788;41.368;2023-05-23T05:09:22;99468.03;;;20.23;48.64
65384;BME280;51986;52.788;41.368;2023-05-23T05:11:50;99484.50;;;20.40;48.55
65384;BME280;51986;52.788;41.368;2023-05-23T05:14:18;99467.78;;;20.12;49.32
65384;BME280;51986;52.788;41.368;2023-05-23T05:16:45;99475.63;;;20.15;49.26
65384;BME280;51986;52.788;41.368;2023-05-23T05:19:13;99469.66;;;19.78;49.35
65384;BME280;51986;52.788;41.368;2023-05-23T05:21:41;99492.63;;;20.12;48.46
65384;BME280;51986;52.788;41.368;2023-05-23T05:24:08;99477.59;;;20.06;49.19
65384;BME280;51986;52.788;41.368;2023-05-23T05:26:35;99475.34;;;20.13;49.07
65384;BME280;51986;52.788;41.368;2023-05-23T05:29:02;99497.34;;;20.60;48.46
65384;BME280;51986;52.788;41.368;2023-05-23T05:31:29;99499.88;;;20.87;46.75
65384;BME280;51986;52.788;41.368;2023-05-23T05:33:57;99486.34;;;20.82;47.34
65384;BME280;51986;52.788;41.368;2023-05-23T05:36:24;99469.56;;;20.96;46.46
65384;BME280;51986;52.788;41.368;2023-05-23T05:38:51;99494.97;;;21.10;46.04
65384;BME280;51986;52.788;41.368;2023-05-23T05:41:19;99509.81;;;21.35;46.45
65384;BME280;51986;52.788;41.368;2023-05-23T05:43:49;99460.06;;;20.71;47.01
65384;BME280;51986;52.788;41.368;2023-05-23T05:46:16;99487.22;;;20.88;47.62
65384;BME280;51986;52.788;41.368;2023-05-23T05:48:45;99489.75;;;21.06;46.92
65384;BME280;51986;52.788;41.368;2023-05-23T05:51:13;99500.75;;;21.32;46.37
65384;BME280;51986;52.788;41.368;2023-05-23T05:53:41;99492.66;;;21.41;45.64
65384;BME280;51986;52.788;41.368;2023-05-23T05:56:08;99470.97;;;21.06;46.59
65384;BME280;51986;52.788;41.368;2023-05-23T05:58:37;99485.44;;;21.77;45.60
65384;BME280;51986;52.788;41.368;2023-05-23T06:01:06;99489.50;;;21.87;45.73
65384;BME280;51986;52.788;41.368;2023-05-23T06:03:33;99496.00;;;21.80;45.31
65384;BME280;51986;52.788;41.368;2023-05-23T06:06:01;99497.97;;;21.80;45.66
65384;BME280;51986;52.788;41.368;2023-05-23T06:08:28;99479.53;;;22.17;45.34
65384;BME280;51986;52.788;41.368;2023-05-23T06:10:55;99487.22;;;22.45;44.57
65384;BME280;51986;52.788;41.368;2023-05-23T06:13:24;99480.13;;;22.62;43.91
65384;BME280;51986;52.788;41.368;2023-05-23T06:15:52;99497.19;;;22.59;43.35
65384;BME280;51986;52.788;41.368;2023-05-23T06:18:20;99475.84;;;22.91;42.74
65384;BME280;51986;52.788;41.368;2023-05-23T06:20:49;99495.63;;;23.08;42.65
65384;BME280;51986;52.788;41.368;2023-05-23T06:23:17;99473.59;;;23.30;41.97
65384;BME280;51986;52.788;41.368;2023-05-23T06:25:45;99495.13;;;23.82;41.24
65384;BME280;51986;52.788;41.368;2023-05-23T06:28:12;99470.84;;;23.76;40.40
65384;BME280;51986;52.788;41.368;2023-05-23T06:30:39;99463.47;;;24.46;39.25
65384;BME280;51986;52.788;41.368;2023-05-23T06:33:08;99482.34;;;24.94;38.83
65384;BME280;51986;52.788;41.368;2023-05-23T06:35:36;99482.41;;;25.17;38.20
65384;BME280;51986;52.788;41.368;2023-05-23T06:38:02;99455.22;;;25.43;38.09
65384;BME280;51986;52.788;41.368;2023-05-23T06:40:30;99481.53;;;25.65;36.30
65384;BME280;51986;52.788;41.368;2023-05-23T06:42:57;99451.56;;;25.91;36.07
65384;BME280;51986;52.788;41.368;2023-05-23T06:45:34;99462.59;;;25.70;36.34
65384;BME280;51986;52.788;41.368;2023-05-23T06:48:01;99473.41;;;25.76;36.48
65384;BME280;51986;52.788;41.368;2023-05-23T06:50:30;99468.25;;;26.00;35.00
65384;BME280;51986;52.788;41.368;2023-05-23T06:52:57;99429.19;;;25.28;36.08
65384;BME280;51986;52.788;41.368;2023-05-23T06:55:24;99460.16;;;25.61;36.07
65384;BME280;51986;52.788;41.368;2023-05-23T06:57:51;99452.78;;;25.78;35.13
65384;BME280;51986;52.788;41.368;2023-05-23T07:00:20;99425.53;;;25.43;35.41
65384;BME280;51986;52.788;41.368;2023-05-23T07:03:07;99441.97;;;25.45;35.32
65384;BME280;51986;52.788;41.368;2023-05-23T07:05:34;99452.75;;;25.39;34.84
65384;BME280;51986;52.788;41.368;2023-05-23T07:08:07;99434.09;;;25.47;35.52
65384;BME280;51986;52.788;41.368;2023-05-23T07:10:34;99418.88;;;25.55;34.65
65384;BME280;51986;52.788;41.368;2023-05-23T07:13:17;99407.06;;;26.03;34.70
65384;BME280;51986;52.788;41.368;2023-05-23T07:15:45;99421.28;;;26.20;33.46
65384;BME280;51986;52.788;41.368;2023-05-23T07:18:13;99422.00;;;26.21;33.48
65384;BME280;51986;52.788;41.368;2023-05-23T07:20:40;99396.94;;;26.09;33.91
65384;BME280;51986;52.788;41.368;2023-05-23T07:23:15;99417.75;;;26.48;33.66
65384;BME280;51986;52.788;41.368;2023-05-23T07:25:43;99419.31;;;26.84;33.09
65384;BME280;51986;52.788;41.368;2023-05-23T07:28:35;99405.94;;;27.33;31.94
65384;BME280;51986;52.788;41.368;2023-05-23T07:31:02;99401.38;;;27.53;33.15
65384;BME280;51986;52.788;41.368;2023-05-23T07:33:30;99402.97;;;27.37;32.30
65384;BME280;51986;52.788;41.368;2023-05-23T07:36:01;99407.19;;;27.32;32.81
65384;BME280;51986;52.788;41.368;2023-05-23T07:38:28;99408.28;;;26.71;34.09
65384;BME280;51986;52.788;41.368;2023-05-23T07:40:55;99410.13;;;26.46;34.02
65384;BME280;51986;52.788;41.368;2023-05-23T07:43:38;99415.88;;;27.25;32.38
65384;BME280;51986;52.788;41.368;2023-05-23T07:46:05;99397.69;;;27.20;32.72
65384;BME280;51986;52.788;41.368;2023-05-23T07:48:32;99396.09;;;27.00;33.07
65384;BME280;51986;52.788;41.368;2023-05-23T07:50:59;99410.91;;;27.29;33.20
65384;BME280;51986;52.788;41.368;2023-05-23T07:53:27;99376.78;;;27.75;32.08
65384;BME280;51986;52.788;41.368;2023-05-23T07:55:54;99385.41;;;27.44;32.67
65384;BME280;51986;52.788;41.368;2023-05-23T07:58:24;99391.53;;;27.55;32.31
65384;BME280;51986;52.788;41.368;2023-05-23T08:00:51;99373.81;;;27.54;32.44
65384;BME280;51986;52.788;41.368;2023-05-23T08:03:44;99386.44;;;27.10;33.27
65384;BME280;51986;52.788;41.368;2023-05-23T08:06:18;99357.88;;;27.45;32.29
65384;BME280;51986;52.788;41.368;2023-05-23T08:08:45;99356.94;;;27.07;32.40
65384;BME280;51986;52.788;41.368;2023-05-23T08:11:13;99361.75;;;27.20;32.24
65384;BME280;51986;52.788;41.368;2023-05-23T08:13:44;99362.97;;;27.19;33.02
65384;BME280;51986;52.788;41.368;2023-05-23T08:16:33;99366.28;;;26.65;33.08
65384;BME280;51986;52.788;41.368;2023-05-23T08:19:01;99368.38;;;26.88;31.56
65384;BME280;51986;52.788;41.368;2023-05-23T08:21:28;99347.88;;;26.99;30.63
65384;BME280;51986;52.788;41.368;2023-05-23T08:23:55;99345.28;;;26.76;31.28
65384;BME280;51986;52.788;41.368;2023-05-23T08:26:26;99308.22;;;26.66;31.10
65384;BME280;51986;52.788;41.368;2023-05-23T08:28:53;99354.28;;;27.01;31.35
65384;BME280;51986;52.788;41.368;2023-05-23T08:31:20;99337.03;;;26.63;32.07
65384;BME280;51986;52.788;41.368;2023-05-23T08:33:47;99344.75;;;27.19;30.85
65384;BME280;51986;52.788;41.368;2023-05-23T08:36:14;99325.81;;;27.19;31.25
65384;BME280;51986;52.788;41.368;2023-05-23T08:38:43;99327.97;;;27.26;30.76
65384;BME280;51986;52.788;41.368;2023-05-23T08:41:23;99345.25;;;27.78;29.05
65384;BME280;51986;52.788;41.368;2023-05-23T08:43:59;99327.53;;;27.96;28.77
65384;BME280;51986;52.788;41.368;2023-05-23T08:46:31;99323.75;;;27.01;29.78
65384;BME280;51986;52.788;41.368;2023-05-23T08:48:59;99294.09;;;26.84;29.39
65384;BME280;51986;52.788;41.368;2023-05-23T08:51:31;99325.53;;;26.51;30.75
65384;BME280;51986;52.788;41.368;2023-05-23T08:54:04;99324.13;;;26.39;32.21
65384;BME280;51986;52.788;41.368;2023-05-23T08:56:34;99327.16;;;26.13;31.90
65384;BME280;51986;52.788;41.368;2023-05-23T08:59:01;99316.13;;;26.00;32.90
65384;BME280;51986;52.788;41.368;2023-05-23T09:01:29;99339.84;;;26.41;32.31
65384;BME280;51986;52.788;41.368;2023-05-23T09:03:59;99353.47;;;26.65;32.23
65384;BME280;51986;52.788;41.368;2023-05-23T09:06:29;99308.72;;;26.64;30.42
65384;BME280;51986;52.788;41.368;2023-05-23T09:08:57;99312.59;;;26.74;30.40
65384;BME280;51986;52.788;41.368;2023-05-23T09:11:24;99352.72;;;26.70;31.08
65384;BME280;51986;52.788;41.368;2023-05-23T09:13:52;99327.94;;;26.60;30.72
65384;BME280;51986;52.788;41.368;2023-05-23T09:16:21;99333.41;;;26.49;30.57
65384;BME280;51986;52.788;41.368;2023-05-23T09:18:54;99296.28;;;26.50;30.17
65384;BME280;51986;52.788;41.368;2023-05-23T09:21:23;99305.53;;;26.13;30.56
65384;BME280;51986;52.788;41.368;2023-05-23T09:24:05;99316.66;;;25.93;30.32
65384;BME280;51986;52.788;41.368;2023-05-23T09:26:33;99395.81;;;25.43;31.57
65384;BME280;51986;52.788;41.368;2023-05-23T09:29:04;99352.13;;;25.39;30.81
65384;BME280;51986;52.788;41.368;2023-05-23T09:31:31;99331.72;;;25.49;29.62
65384;BME280;51986;52.788;41.368;2023-05-23T09:34:00;99341.53;;;25.46;29.06
65384;BME280;51986;52.788;41.368;2023-05-23T09:36:28;99347.69;;;25.02;29.96
65384;BME280;51986;52.788;41.368;2023-05-23T09:38:55;99339.13;;;25.09;29.19
65384;BME280;51986;52.788;41.368;2023-05-23T09:41:23;99345.16;;;24.70;30.20
65384;BME280;51986;52.788;41.368;2023-05-23T09:43:51;99332.19;;;24.85;30.11
65384;BME280;51986;52.788;41.368;2023-05-23T09:46:20;99344.16;;;24.62;29.32
65384;BME280;51986;52.788;41.368;2023-05-23T09:48:49;99314.50;;;24.62;30.05
65384;BME280;51986;52.788;41.368;2023-05-23T09:51:19;99321.81;;;24.50;29.69
65384;BME280;51986;52.788;41.368;2023-05-23T09:53:46;99352.28;;;24.73;29.65
65384;BME280;51986;52.788;41.368;2023-05-23T09:56:15;99302.31;;;25.06;29.61
65384;BME280;51986;52.788;41.368;2023-05-23T09:58:53;99345.75;;;25.25;29.26
65384;BME280;51986;52.788;41.368;2023-05-23T10:01:22;99330.78;;;25.24;28.93
65384;BME280;51986;52.788;41.368;2023-05-23T10:03:51;99283.16;;;25.15;29.32
65384;BME280;51986;52.788;41.368;2023-05-23T10:09:09;99290.47;;;25.54;28.48
65384;BME280;51986;52.788;41.368;2023-05-23T10:14:44;99295.13;;;25.70;28.02
65384;BME280;51986;52.788;41.368;2023-05-23T10:17:22;99347.69;;;25.35;28.76
65384;BME280;51986;52.788;41.368;2023-05-23T10:22:23;99319.22;;;25.34;28.62
65384;BME280;51986;52.788;41.368;2023-05-23T10:24:51;99323.16;;;25.05;28.86
65384;BME280;51986;52.788;41.368;2023-05-23T10:27:19;99341.06;;;25.08;28.76
65384;BME280;51986;52.788;41.368;2023-05-23T10:29:47;99326.84;;;25.08;29.21
65384;BME280;51986;52.788;41.368;2023-05-23T10:32:14;99353.34;;;25.15;29.13
65384;BME280;51986;52.788;41.368;2023-05-23T10:35:03;99325.59;;;25.31;29.10
65384;BME280;51986;52.788;41.368;2023-05-23T10:40:15;99321.19;;;25.34;29.02
65384;BME280;51986;52.788;41.368;2023-05-23T10:42:57;99325.31;;;25.52;28.93
65384;BME280;51986;52.788;41.368;2023-05-23T10:45:27;99340.31;;;24.97;29.00
65384;BME280;51986;52.788;41.368;2023-05-23T10:47:54;99329.72;;;24.82;29.59
65384;BME280;51986;52.788;41.368;2023-05-23T10:50:31;99330.97;;;24.87;29.58
65384;BME280;51986;52.788;41.368;2023-05-23T10:52:59;99322.91;;;25.03;30.33
65384;BME280;51986;52.788;41.368;2023-05-23T10:55:30;99326.06;;;24.91;29.34
65384;BME280;51986;52.788;41.368;2023-05-23T10:58:19;99339.81;;;24.93;29.49
65384;BME280;51986;52.788;41.368;2023-05-23T11:01:00;99334.63;;;24.67;30.39
65384;BME280;51986;52.788;41.368;2023-05-23T11:06:31;99352.59;;;25.03;30.15
65384;BME280;51986;52.788;41.368;2023-05-23T11:09:09;99341.25;;;24.82;30.47
65384;BME280;51986;52.788;41.368;2023-05-23T11:12:04;99352.34;;;24.96;31.12
65384;BME280;51986;52.788;41.368;2023-05-23T11:19:38;99366.97;;;24.61;32.59
65384;BME280;51986;52.788;41.368;2023-05-23T11:22:08;99347.00;;;24.30;32.91
65384;BME280;51986;52.788;41.368;2023-05-23T11:24:50;99349.50;;;24.51;33.03
65384;BME280;51986;52.788;41.368;2023-05-23T11:27:30;99395.31;;;24.40;33.32
65384;BME280;51986;52.788;41.368;2023-05-23T11:32:34;99382.41;;;23.69;35.06
65384;BME280;51986;52.788;41.368;2023-05-23T11:35:03;99370.22;;;23.79;35.51
65384;BME280;51986;52.788;41.368;2023-05-23T11:37:30;99383.38;;;23.66;35.93
65384;BME280;51986;52.788;41.368;2023-05-23T11:39:58;99366.59;;;23.82;35.90
65384;BME280;51986;52.788;41.368;2023-05-23T11:42:25;99357.59;;;23.60;35.56
65384;BME280;51986;52.788;41.368;2023-05-23T11:44:52;99352.50;;;23.62;36.15
65384;BME280;51986;52.788;41.368;2023-05-23T11:47:19;99352.34;;;23.45;35.74
65384;BME280;51986;52.788;41.368;2023-05-23T11:49:46;99350.88;;;23.44;35.98
65384;BME280;51986;52.788;41.368;2023-05-23T11:52:14;99353.13;;;23.19;36.41
65384;BME280;51986;52.788;41.368;2023-05-23T11:54:42;99350.59;;;23.10;36.73
65384;BME280;51986;52.788;41.368;2023-05-23T11:57:09;99377.69;;;22.80;36.77
65384;BME280;51986;52.788;41.368;2023-05-23T11:59:37;99349.81;;;22.58;36.69
65384;BME280;51986;52.788;41.368;2023-05-23T12:02:05;99380.41;;;22.60;37.81
65384;BME280;51986;52.788;41.368;2023-05-23T12:04:34;99357.28;;;22.48;37.68
65384;BME280;51986;52.788;41.368;2023-05-23T12:07:04;99350.97;;;22.51;37.44
65384;BME280;51986;52.788;41.368;2023-05-23T12:09:50;99354.97;;;22.61;37.27
65384;BME280;51986;52.788;41.368;2023-05-23T12:12:21;99325.66;;;22.02;38.22
65384;BME280;51986;52.788;41.368;2023-05-23T12:14:48;99313.25;;;22.04;38.11
65384;BME280;51986;52.788;41.368;2023-05-23T12:17:16;99342.13;;;22.10;38.62
65384;BME280;51986;52.788;41.368;2023-05-23T12:19:44;99361.53;;;21.99;38.35
65384;BME280;51986;52.788;41.368;2023-05-23T12:22:11;99350.75;;;22.14;38.28
65384;BME280;51986;52.788;41.368;2023-05-23T12:24:44;99348.69;;;22.23;39.05
65384;BME280;51986;52.788;41.368;2023-05-23T12:27:12;99360.06;;;21.98;38.96
65384;BME280;51986;52.788;41.368;2023-05-23T12:29:38;99355.75;;;22.06;39.42
65384;BME280;51986;52.788;41.368;2023-05-23T12:32:06;99365.03;;;22.05;39.44
65384;BME280;51986;52.788;41.368;2023-05-23T12:34:33;99362.03;;;21.83;39.47
65384;BME280;51986;52.788;41.368;2023-05-23T12:37:00;99337.19;;;22.23;39.27
65384;BME280;51986;52.788;41.368;2023-05-23T12:39:44;99329.63;;;22.06;39.72
65384;BME280;51986;52.788;41.368;2023-05-23T12:42:11;99353.63;;;22.30;39.79
65384;BME280;51986;52.788;41.368;2023-05-23T12:44:40;99334.63;;;22.54;39.89
65384;BME280;51986;52.788;41.368;2023-05-23T12:47:07;99323.69;;;22.17;39.92
65384;BME280;51986;52.788;41.368;2023-05-23T12:49:34;99312.59;;;22.10;40.65
65384;BME280;51986;52.788;41.368;2023-05-23T12:52:01;99359.28;;;21.97;40.91
65384;BME280;51986;52.788;41.368;2023-05-23T12:54:29;99312.28;;;21.87;40.58
65384;BME280;51986;52.788;41.368;2023-05-23T12:56:56;99303.19;;;22.40;41.13
65384;BME280;51986;52.788;41.368;2023-05-23T12:59:22;99325.09;;;22.33;40.71
65384;BME280;51986;52.788;41.368;2023-05-23T13:01:49;99322.47;;;22.39;39.96
65384;BME280;51986;52.788;41.368;2023-05-23T13:04:16;99321.47;;;22.16;39.47
65384;BME280;51986;52.788;41.368;2023-05-23T13:06:44;99313.13;;;22.34;39.27
65384;BME280;51986;52.788;41.368;2023-05-23T13:09:11;99308.09;;;22.42;38.98
65384;BME280;51986;52.788;41.368;2023-05-23T13:11:38;99311.31;;;22.46;38.74
65384;BME280;51986;52.788;41.368;2023-05-23T13:14:05;99314.16;;;22.37;39.67
65384;BME280;51986;52.788;41.368;2023-05-23T13:16:32;99312.03;;;22.67;38.63
65384;BME280;51986;52.788;41.368;2023-05-23T13:18:59;99288.13;;;22.48;39.09
65384;BME280;51986;52.788;41.368;2023-05-23T13:21:26;99286.88;;;22.70;38.82
65384;BME280;51986;52.788;41.368;2023-05-23T13:23:53;99299.75;;;22.40;39.45
65384;BME280;51986;52.788;41.368;2023-05-23T13:26:20;99312.81;;;22.47;39.43
65384;BME280;51986;52.788;41.368;2023-05-23T13:28:47;99295.47;;;22.48;38.09
65384;BME280;51986;52.788;41.368;2023-05-23T13:31:14;99285.25;;;22.11;39.15
65384;BME280;51986;52.788;41.368;2023-05-23T13:33:42;99293.47;;;22.22;39.90
65384;BME280;51986;52.788;41.368;2023-05-23T13:36:09;99293.84;;;21.95;40.42
65384;BME280;51986;52.788;41.368;2023-05-23T13:38:54;99291.28;;;22.06;40.77
65384;BME280;51986;52.788;41.368;2023-05-23T13:41:22;99316.72;;;21.70;40.69